Time;durP1;ratioP1;P1;durP2;ratioP2;P2;SDS_P1;SDS_P2;PMS_P1;PMS_P2;Temp;Humidity;BMP_temperature;BMP_pressure;BME280_temperature;BME280_humidity;BME280_pressure;Samples;Min_cycle;Max_cycle;Signal;HPM_P1;HPM_P2
2023/05/25 00:00:13;;;;;;;10.88;4.78;;;;;;;;;;5008002;28;20054;-78
2023/05/25 00:02:39;;;;;;;7.28;4.55;;;;;;;;;;4991811;28;20069;-78
2023/05/25 00:05:05;;;;;;;12.13;5.25;;;;;;;;;;4990697;28;20042;-78
2023/05/25 00:07:31;;;;;;;10.02;4.95;;;;;;;;;;4991310;28;20485;-78
2023/05/25 00:09:57;;;;;;;9.45;4.45;;;;;;;;;;4988207;28;20052;-78
2023/05/25 00:12:23;;;;;;;10.77;5.40;;;;;;;;;;4988075;28;20074;-78
2023/05/25 00:14:49;;;;;;;11.38;5.25;;;;;;;;;;4988558;28;20096;-78
2023/05/25 00:17:17;;;;;;;8.90;5.38;;;;;;;;;;4992326;28;20050;-78
2023/05/25 00:19:43;;;;;;;9.05;5.22;;;;;;;;;;4990558;28;20061;-78
2023/05/25 00:22:10;;;;;;;10.50;5.32;;;;;;;;;;4984212;28;20050;-78
2023/05/25 00:24:36;;;;;;;8.80;5.65;;;;;;;;;;4992052;28;20038;-78
2023/05/25 00:27:02;;;;;;;10.32;5.75;;;;;;;;;;4986468;28;20078;-78
2023/05/25 00:29:28;;;;;;;9.98;6.55;;;;;;;;;;4989194;28;20047;-78
2023/05/25 00:31:54;;;;;;;12.23;6.50;;;;;;;;;;4989417;28;20046;-78
2023/05/25 00:34:20;;;;;;;10.60;5.75;;;;;;;;;;4988830;28;20035;-78
2023/05/25 00:36:47;;;;;;;11.25;6.00;;;;;;;;;;4991202;28;20053;-78
2023/05/25 00:39:16;;;;;;;10.02;5.57;;;;;;;;;;4991247;28;20034;-78
2023/05/25 00:41:44;;;;;;;10.18;5.75;;;;;;;;;;4988096;28;20088;-78
2023/05/25 00:44:11;;;;;;;10.27;5.88;;;;;;;;;;4988471;28;20057;-78
2023/05/25 00:46:37;;;;;;;11.07;5.80;;;;;;;;;;4982464;28;20541;-79
2023/05/25 00:49:04;;;;;;;10.52;5.60;;;;;;;;;;4991300;28;20050;-78
2023/05/25 00:51:35;;;;;;;13.18;5.97;;;;;;;;;;4989965;28;20054;-78
2023/05/25 00:54:01;;;;;;;11.13;5.63;;;;;;;;;;4987750;28;20478;-78
2023/05/25 00:56:32;;;;;;;10.23;5.85;;;;;;;;;;4990227;28;20098;-78
2023/05/25 00:59:03;;;;;;;12.45;6.38;;;;;;;;;;4991051;28;20086;-78
2023/05/25 01:01:32;;;;;;;10.93;6.07;;;;;;;;;;4987668;28;20406;-78
2023/05/25 01:03:59;;;;;;;10.98;5.70;;;;;;;;;;4988051;28;20082;-78
2023/05/25 01:06:26;;;;;;;9.30;5.30;;;;;;;;;;4991675;28;20383;-78
2023/05/25 01:08:55;;;;;;;10.73;5.43;;;;;;;;;;4989807;28;20077;-78
2023/05/25 01:11:25;;;;;;;9.95;5.60;;;;;;;;;;4988818;28;20410;-78
2023/05/25 01:13:52;;;;;;;9.60;5.72;;;;;;;;;;4990879;28;20038;-78
2023/05/25 01:16:19;;;;;;;9.15;5.97;;;;;;;;;;4988411;28;20552;-78
2023/05/25 01:18:46;;;;;;;9.23;5.85;;;;;;;;;;4986893;28;20042;-78
2023/05/25 01:21:20;;;;;;;10.07;5.63;;;;;;;;;;4987428;28;20050;-78
2023/05/25 01:23:49;;;;;;;9.20;5.90;;;;;;;;;;4989439;28;20042;-78
2023/05/25 01:26:17;;;;;;;9.38;5.88;;;;;;;;;;4990433;28;20042;-79
2023/05/25 01:28:46;;;;;;;9.95;5.93;;;;;;;;;;4986381;28;20487;-79
2023/05/25 01:31:14;;;;;;;11.43;6.65;;;;;;;;;;4988412;28;20053;-78
2023/05/25 01:33:42;;;;;;;9.38;6.07;;;;;;;;;;4988221;28;20047;-78
2023/05/25 01:36:08;;;;;;;8.55;5.97;;;;;;;;;;5003707;28;20057;-78
2023/05/25 01:38:35;;;;;;;10.57;6.28;;;;;;;;;;4987597;28;20426;-78
2023/05/25 01:41:00;;;;;;;9.18;5.78;;;;;;;;;;4991211;28;20042;-78
2023/05/25 01:43:27;;;;;;;12.85;6.53;;;;;;;;;;4988235;28;20062;-78
2023/05/25 01:45:55;;;;;;;11.77;5.80;;;;;;;;;;4985310;28;20065;-78
2023/05/25 01:48:30;;;;;;;8.95;6.30;;;;;;;;;;4984703;28;20046;-78
2023/05/25 01:51:04;;;;;;;9.10;5.88;;;;;;;;;;4990913;28;20046;-78
2023/05/25 01:53:38;;;;;;;12.30;6.45;;;;;;;;;;4988534;28;20082;-78
2023/05/25 01:56:10;;;;;;;8.15;6.13;;;;;;;;;;4988549;28;20321;-78
2023/05/25 01:58:39;;;;;;;9.70;6.03;;;;;;;;;;4987148;28;20184;-78
2023/05/25 02:01:05;;;;;;;9.27;6.32;;;;;;;;;;4987396;28;20065;-78
2023/05/25 02:03:32;;;;;;;12.93;6.55;;;;;;;;;;4987036;28;20188;-77
2023/05/25 02:05:58;;;;;;;13.82;6.88;;;;;;;;;;4988528;28;20050;-77
2023/05/25 02:08:24;;;;;;;11.25;6.38;;;;;;;;;;4982263;28;20073;-77
2023/05/25 02:10:50;;;;;;;12.23;6.03;;;;;;;;;;4988561;28;20395;-78
2023/05/25 02:13:16;;;;;;;10.38;6.07;;;;;;;;;;4987298;28;20142;-78
2023/05/25 02:15:42;;;;;;;6.60;5.60;;;;;;;;;;4989097;28;20046;-78
2023/05/25 02:18:08;;;;;;;13.73;6.13;;;;;;;;;;4982942;28;20050;-78
2023/05/25 02:20:36;;;;;;;9.05;5.60;;;;;;;;;;4988253;28;20042;-78
2023/05/25 02:23:02;;;;;;;10.57;5.40;;;;;;;;;;4985577;28;20376;-78
2023/05/25 02:25:28;;;;;;;9.60;5.22;;;;;;;;;;4988574;28;20045;-78
2023/05/25 02:27:54;;;;;;;9.95;5.43;;;;;;;;;;4988136;28;20105;-78
2023/05/25 02:30:20;;;;;;;8.88;5.32;;;;;;;;;;4982915;28;20065;-78
2023/05/25 02:32:46;;;;;;;9.07;5.95;;;;;;;;;;5000359;28;20058;-78
2023/05/25 02:35:12;;;;;;;9.02;5.22;;;;;;;;;;4985809;28;20046;-78
2023/05/25 02:37:38;;;;;;;8.07;5.43;;;;;;;;;;4989275;28;20035;-78
2023/05/25 02:40:05;;;;;;;10.10;5.95;;;;;;;;;;4985736;28;20168;-78
2023/05/25 02:42:31;;;;;;;10.95;6.00;;;;;;;;;;4985172;28;20077;-78
2023/05/25 02:44:57;;;;;;;10.00;6.45;;;;;;;;;;4980985;28;20066;-78
2023/05/25 02:47:23;;;;;;;10.60;6.82;;;;;;;;;;4987761;28;20129;-78
2023/05/25 02:49:49;;;;;;;10.77;6.63;;;;;;;;;;4982975;28;20129;-78
2023/05/25 02:52:15;;;;;;;9.55;7.28;;;;;;;;;;4987593;28;20101;-78
2023/05/25 02:54:41;;;;;;;11.82;6.88;;;;;;;;;;4988289;28;20046;-78
2023/05/25 02:57:09;;;;;;;13.35;7.47;;;;;;;;;;4987064;28;20050;-78
2023/05/25 02:59:35;;;;;;;12.18;7.80;;;;;;;;;;4991081;28;20061;-79
2023/05/25 03:02:01;;;;;;;14.32;8.38;;;;;;;;;;4991573;28;20061;-79
2023/05/25 03:04:27;;;;;;;11.80;8.40;;;;;;;;;;4989987;28;20051;-78
2023/05/25 03:06:53;;;;;;;12.80;8.40;;;;;;;;;;5008603;28;20074;-78
2023/05/25 03:09:19;;;;;;;13.93;9.27;;;;;;;;;;4991881;28;20521;-78
2023/05/25 03:11:45;;;;;;;15.30;8.98;;;;;;;;;;4992470;28;20050;-79
2023/05/25 03:14:12;;;;;;;10.40;8.07;;;;;;;;;;4987874;28;20038;-79
2023/05/25 03:16:38;;;;;;;11.70;8.30;;;;;;;;;;4993332;28;20144;-79
2023/05/25 03:19:09;;;;;;;14.32;8.27;;;;;;;;;;4993199;28;20039;-79
2023/05/25 03:21:35;;;;;;;9.68;7.80;;;;;;;;;;4990398;28;20086;-78
2023/05/25 03:24:01;;;;;;;12.68;9.02;;;;;;;;;;4993989;28;20042;-79
2023/05/25 03:26:27;;;;;;;14.30;8.07;;;;;;;;;;4990583;28;20050;-78
2023/05/25 03:28:53;;;;;;;15.00;7.35;;;;;;;;;;4993824;28;20042;-78
2023/05/25 03:31:19;;;;;;;11.27;6.80;;;;;;;;;;4985957;28;20173;-78
2023/05/25 03:33:45;;;;;;;8.95;6.57;;;;;;;;;;4992048;28;20042;-78
2023/05/25 03:36:12;;;;;;;12.20;6.57;;;;;;;;;;4992125;28;20038;-79
2023/05/25 03:38:38;;;;;;;13.00;6.22;;;;;;;;;;4989429;28;20034;-79
2023/05/25 03:41:04;;;;;;;8.93;6.35;;;;;;;;;;4992499;28;20446;-79
2023/05/25 03:43:31;;;;;;;9.75;5.63;;;;;;;;;;4985392;28;20046;-78
2023/05/25 03:45:57;;;;;;;14.30;6.68;;;;;;;;;;4992346;28;20172;-79
2023/05/25 03:48:23;;;;;;;10.55;6.03;;;;;;;;;;4990969;28;20050;-79
2023/05/25 03:50:49;;;;;;;11.40;6.05;;;;;;;;;;4991178;28;20457;-78
2023/05/25 03:53:15;;;;;;;11.25;6.10;;;;;;;;;;4992682;28;20049;-79
2023/05/25 03:55:41;;;;;;;12.07;6.20;;;;;;;;;;4990005;28;20113;-79
2023/05/25 03:58:10;;;;;;;10.80;6.13;;;;;;;;;;4993745;28;20053;-79
2023/05/25 04:00:36;;;;;;;10.45;6.13;;;;;;;;;;4990275;28;20057;-79
2023/05/25 04:03:02;;;;;;;11.68;6.30;;;;;;;;;;4993608;28;20050;-79
2023/05/25 04:05:29;;;;;;;11.77;6.55;;;;;;;;;;4988256;28;20057;-78
2023/05/25 04:07:56;;;;;;;9.85;5.97;;;;;;;;;;4988878;28;20046;-78
2023/05/25 04:10:22;;;;;;;12.38;6.45;;;;;;;;;;4991343;28;20058;-79
2023/05/25 04:12:48;;;;;;;10.38;5.68;;;;;;;;;;4991249;28;20391;-79
2023/05/25 04:15:14;;;;;;;10.35;6.30;;;;;;;;;;4989278;28;20046;-79
2023/05/25 04:17:40;;;;;;;13.32;5.95;;;;;;;;;;4985692;28;20042;-79
2023/05/25 04:20:07;;;;;;;9.52;5.80;;;;;;;;;;4991179;28;20545;-79
2023/05/25 04:22:37;;;;;;;11.05;5.63;;;;;;;;;;4987920;28;20065;-79
2023/05/25 04:25:04;;;;;;;13.85;6.20;;;;;;;;;;4989667;28;20410;-79
2023/05/25 04:27:31;;;;;;;13.30;6.43;;;;;;;;;;4987655;28;20371;-79
2023/05/25 04:29:57;;;;;;;15.73;6.22;;;;;;;;;;4989903;28;20046;-79
2023/05/25 04:32:23;;;;;;;13.45;7.03;;;;;;;;;;4986327;28;20061;-79
2023/05/25 04:34:50;;;;;;;13.10;7.15;;;;;;;;;;4986492;28;20096;-79
2023/05/25 04:37:16;;;;;;;14.82;7.18;;;;;;;;;;4990124;28;20635;-79
2023/05/25 04:39:42;;;;;;;12.05;7.88;;;;;;;;;;4987450;28;20209;-79
2023/05/25 04:42:08;;;;;;;13.88;7.22;;;;;;;;;;4983305;28;20183;-79
2023/05/25 04:44:35;;;;;;;15.70;8.50;;;;;;;;;;4990982;28;20050;-79
2023/05/25 04:47:01;;;;;;;14.27;7.10;;;;;;;;;;4987007;28;20066;-78
2023/05/25 04:49:27;;;;;;;11.82;7.38;;;;;;;;;;4989091;28;20089;-79
2023/05/25 04:51:53;;;;;;;14.90;8.07;;;;;;;;;;4985063;28;20042;-79
2023/05/25 04:54:20;;;;;;;15.15;7.68;;;;;;;;;;4989425;28;20046;-79
2023/05/25 04:56:46;;;;;;;15.25;7.75;;;;;;;;;;4982576;28;20074;-79
2023/05/25 04:59:12;;;;;;;14.82;7.60;;;;;;;;;;4985339;28;20050;-78
2023/05/25 05:01:40;;;;;;;12.20;7.63;;;;;;;;;;4988143;28;20121;-79
2023/05/25 05:04:07;;;;;;;19.73;8.05;;;;;;;;;;4987453;28;20050;-79
2023/05/25 05:06:33;;;;;;;16.83;9.10;;;;;;;;;;4991041;28;20052;-79
2023/05/25 05:09:00;;;;;;;15.90;8.55;;;;;;;;;;4986967;28;20044;-78
2023/05/25 05:11:27;;;;;;;15.52;8.43;;;;;;;;;;4993975;28;20051;-79
2023/05/25 05:13:53;;;;;;;15.40;8.43;;;;;;;;;;4986828;28;20122;-78
2023/05/25 05:16:19;;;;;;;15.05;7.90;;;;;;;;;;4987905;28;20150;-78
2023/05/25 05:18:45;;;;;;;17.08;8.00;;;;;;;;;;4984638;28;20073;-78
2023/05/25 05:21:11;;;;;;;16.33;8.07;;;;;;;;;;4987858;28;20050;-79
2023/05/25 05:23:37;;;;;;;12.65;7.43;;;;;;;;;;4988980;28;20097;-79
2023/05/25 05:26:06;;;;;;;14.55;7.72;;;;;;;;;;4990725;28;20054;-79
2023/05/25 05:28:32;;;;;;;12.90;7.15;;;;;;;;;;4993172;28;20074;-78
2023/05/25 05:30:58;;;;;;;11.05;6.30;;;;;;;;;;4985642;28;20153;-78
2023/05/25 05:33:24;;;;;;;12.48;6.82;;;;;;;;;;4999605;28;20046;-79
2023/05/25 05:35:51;;;;;;;11.55;5.57;;;;;;;;;;4983661;28;20046;-79
2023/05/25 05:38:17;;;;;;;14.00;6.53;;;;;;;;;;4985654;28;20057;-78
2023/05/25 05:40:43;;;;;;;13.40;7.53;;;;;;;;;;4989612;28;20046;-79
2023/05/25 05:43:10;;;;;;;14.13;7.40;;;;;;;;;;4988201;28;20045;-79
2023/05/25 05:45:36;;;;;;;13.02;6.25;;;;;;;;;;4985453;28;20069;-79
2023/05/25 05:48:03;;;;;;;14.27;7.38;;;;;;;;;;4985148;28;20051;-79
2023/05/25 05:50:29;;;;;;;15.57;6.97;;;;;;;;;;4989056;28;20486;-79
2023/05/25 05:52:56;;;;;;;12.48;7.25;;;;;;;;;;4989813;28;20057;-79
2023/05/25 05:55:22;;;;;;;14.40;6.53;;;;;;;;;;4987312;28;20034;-78
2023/05/25 05:57:48;;;;;;;13.45;6.53;;;;;;;;;;4984294;28;20933;-78
2023/05/25 06:00:15;;;;;;;14.65;7.40;;;;;;;;;;4987480;28;20046;-78
2023/05/25 06:02:41;;;;;;;15.07;7.05;;;;;;;;;;4984569;28;20057;-79
2023/05/25 06:05:08;;;;;;;12.90;7.05;;;;;;;;;;4988108;28;20038;-78
2023/05/25 06:07:34;;;;;;;11.77;5.97;;;;;;;;;;4988710;28;20482;-78
2023/05/25 06:10:00;;;;;;;11.82;5.57;;;;;;;;;;4987247;28;20052;-78
2023/05/25 06:12:27;;;;;;;11.98;5.90;;;;;;;;;;4986995;28;20098;-78
2023/05/25 06:14:53;;;;;;;11.30;6.32;;;;;;;;;;4989064;28;20124;-78
2023/05/25 06:17:19;;;;;;;11.52;6.10;;;;;;;;;;4988897;28;20045;-79
2023/05/25 06:19:45;;;;;;;18.70;7.05;;;;;;;;;;4987512;28;20153;-79
2023/05/25 06:22:11;;;;;;;13.15;5.53;;;;;;;;;;4984769;28;20050;-79
2023/05/25 06:24:37;;;;;;;11.23;5.90;;;;;;;;;;4987796;28;20042;-79
2023/05/25 06:27:03;;;;;;;10.63;5.50;;;;;;;;;;4985701;28;20073;-79
2023/05/25 06:29:30;;;;;;;9.70;5.60;;;;;;;;;;4986960;28;21812;-78
2023/05/25 06:31:56;;;;;;;13.23;5.70;;;;;;;;;;4986505;28;20046;-78
2023/05/25 06:34:22;;;;;;;12.90;5.00;;;;;;;;;;4982513;28;20050;-79
2023/05/25 06:36:48;;;;;;;12.23;4.75;;;;;;;;;;4981929;28;20054;-78
2023/05/25 06:39:15;;;;;;;8.90;4.50;;;;;;;;;;4985145;28;20053;-78
2023/05/25 06:41:41;;;;;;;9.95;4.38;;;;;;;;;;4987360;28;20046;-77
2023/05/25 06:44:07;;;;;;;10.52;4.82;;;;;;;;;;4984984;28;20039;-78
2023/05/25 06:46:33;;;;;;;8.07;3.88;;;;;;;;;;4992203;28;20050;-77
2023/05/25 06:49:00;;;;;;;12.57;4.97;;;;;;;;;;4990047;28;20482;-77
2023/05/25 06:51:26;;;;;;;11.57;4.63;;;;;;;;;;4979393;28;20132;-77
2023/05/25 06:53:52;;;;;;;12.27;4.68;;;;;;;;;;4983713;28;20487;-77
2023/05/25 06:56:18;;;;;;;9.30;4.43;;;;;;;;;;4991247;28;20487;-77
2023/05/25 06:58:45;;;;;;;10.55;4.88;;;;;;;;;;4989916;28;20066;-77
2023/05/25 07:01:11;;;;;;;11.63;4.40;;;;;;;;;;4987715;28;20050;-77
2023/05/25 07:03:37;;;;;;;6.47;3.90;;;;;;;;;;4991199;28;20409;-77
2023/05/25 07:06:03;;;;;;;9.32;4.60;;;;;;;;;;5004750;28;20054;-77
2023/05/25 07:08:30;;;;;;;10.40;4.63;;;;;;;;;;4979336;28;20038;-77
2023/05/25 07:10:56;;;;;;;10.60;4.55;;;;;;;;;;4983718;28;20119;-76
2023/05/25 07:13:22;;;;;;;11.57;4.40;;;;;;;;;;4972197;28;20043;-77
2023/05/25 07:15:48;;;;;;;16.17;5.25;;;;;;;;;;4986966;28;20042;-77
2023/05/25 07:18:15;;;;;;;10.15;4.10;;;;;;;;;;4988528;28;20042;-77
2023/05/25 07:20:41;;;;;;;10.10;4.45;;;;;;;;;;4992350;28;20088;-77
2023/05/25 07:23:09;;;;;;;13.07;4.68;;;;;;;;;;4991744;28;20054;-78
2023/05/25 07:25:35;;;;;;;10.43;4.93;;;;;;;;;;4981579;28;20557;-77
2023/05/25 07:28:02;;;;;;;10.27;4.53;;;;;;;;;;4991459;28;20046;-77
2023/05/25 07:30:28;;;;;;;14.15;4.47;;;;;;;;;;4979133;28;20046;-77
2023/05/25 07:32:55;;;;;;;11.05;4.38;;;;;;;;;;4989704;28;20034;-77
2023/05/25 07:35:21;;;;;;;15.27;4.88;;;;;;;;;;4985778;28;20097;-76
2023/05/25 07:37:55;;;;;;;15.15;4.97;;;;;;;;;;4978813;28;20522;-76
2023/05/25 07:40:21;;;;;;;11.65;4.55;;;;;;;;;;4984056;28;20049;-76
2023/05/25 07:42:47;;;;;;;12.02;4.40;;;;;;;;;;4985389;28;20046;-78
2023/05/25 07:45:14;;;;;;;9.27;3.75;;;;;;;;;;4988882;28;20479;-78
2023/05/25 07:47:40;;;;;;;12.38;4.50;;;;;;;;;;4993227;28;20042;-77
2023/05/25 07:50:07;;;;;;;14.93;4.65;;;;;;;;;;5007858;28;20046;-74
2023/05/25 07:52:33;;;;;;;14.80;4.47;;;;;;;;;;4985370;28;20038;-77
2023/05/25 07:54:59;;;;;;;13.80;5.00;;;;;;;;;;4984219;28;20041;-77
2023/05/25 07:57:25;;;;;;;15.10;4.45;;;;;;;;;;4983514;28;20490;-77
2023/05/25 07:59:51;;;;;;;20.38;4.38;;;;;;;;;;4989473;28;20042;-77
2023/05/25 08:02:17;;;;;;;18.52;5.78;;;;;;;;;;5005765;28;20043;-76
2023/05/25 08:04:43;;;;;;;10.60;4.28;;;;;;;;;;4989674;28;20061;-77
2023/05/25 08:07:09;;;;;;;20.23;5.40;;;;;;;;;;5006834;28;20050;-77
2023/05/25 08:09:35;;;;;;;19.00;5.13;;;;;;;;;;4989033;28;20046;-76
2023/05/25 08:12:01;;;;;;;15.07;5.22;;;;;;;;;;4991696;28;20042;-76
2023/05/25 08:14:27;;;;;;;15.15;5.05;;;;;;;;;;4987197;28;20117;-77
2023/05/25 08:16:53;;;;;;;14.05;4.97;;;;;;;;;;5001193;28;20050;-77
2023/05/25 08:19:19;;;;;;;15.77;5.50;;;;;;;;;;4990506;28;20044;-77
2023/05/25 08:21:45;;;;;;;17.75;5.38;;;;;;;;;;4986797;28;20051;-77
2023/05/25 08:24:11;;;;;;;15.68;5.60;;;;;;;;;;4977314;28;20487;-77
2023/05/25 08:26:37;;;;;;;22.85;5.68;;;;;;;;;;4989443;28;20050;-78
2023/05/25 08:29:04;;;;;;;15.23;4.93;;;;;;;;;;4991310;28;20034;-77
2023/05/25 08:31:33;;;;;;;17.52;5.93;;;;;;;;;;4989963;28;20046;-76
2023/05/25 08:33:59;;;;;;;14.90;4.75;;;;;;;;;;4985243;28;20043;-76
2023/05/25 08:36:27;;;;;;;16.27;5.07;;;;;;;;;;4986602;28;20053;-76
2023/05/25 08:38:53;;;;;;;19.50;5.53;;;;;;;;;;4993509;28;20142;-77
2023/05/25 08:41:22;;;;;;;21.38;5.18;;;;;;;;;;4973550;28;20057;-77
2023/05/25 08:43:48;;;;;;;21.70;5.35;;;;;;;;;;4985438;28;20052;-78
2023/05/25 08:46:16;;;;;;;18.98;4.90;;;;;;;;;;4988625;28;20064;-78
2023/05/25 08:48:43;;;;;;;19.67;5.20;;;;;;;;;;4991301;28;20577;-78
2023/05/25 08:51:10;;;;;;;16.83;4.95;;;;;;;;;;4992095;28;20042;-77
2023/05/25 08:53:40;;;;;;;17.02;5.30;;;;;;;;;;4986850;28;20516;-77
2023/05/25 08:56:11;;;;;;;17.80;5.20;;;;;;;;;;4989535;28;20046;-78
2023/05/25 08:58:44;;;;;;;14.85;5.20;;;;;;;;;;4991105;28;20529;-77
2023/05/25 09:01:12;;;;;;;18.30;5.68;;;;;;;;;;4988206;28;20046;-77
2023/05/25 09:03:38;;;;;;;18.30;5.68;;;;;;;;;;4987101;28;20575;-76
2023/05/25 09:06:05;;;;;;;18.27;5.97;;;;;;;;;;5001274;28;20046;-77
2023/05/25 09:08:31;;;;;;;17.33;5.65;;;;;;;;;;4991028;28;20043;-77
2023/05/25 09:10:57;;;;;;;14.90;5.25;;;;;;;;;;4988117;28;20048;-76
2023/05/25 09:13:23;;;;;;;20.55;5.10;;;;;;;;;;4985196;28;20054;-77
2023/05/25 09:15:51;;;;;;;23.33;6.22;;;;;;;;;;4991365;28;20074;-78
2023/05/25 09:18:17;;;;;;;17.30;5.20;;;;;;;;;;4990390;28;20109;-78
2023/05/25 09:20:43;;;;;;;20.30;5.03;;;;;;;;;;4990732;28;20049;-78
2023/05/25 09:23:09;;;;;;;17.63;5.43;;;;;;;;;;4988070;28;20039;-77
2023/05/25 09:25:37;;;;;;;18.52;5.00;;;;;;;;;;4988996;28;20060;-79
2023/05/25 09:28:03;;;;;;;15.70;4.53;;;;;;;;;;4987634;28;20042;-79
2023/05/25 09:30:32;;;;;;;17.77;4.82;;;;;;;;;;4988466;28;20042;-78
2023/05/25 09:33:13;;;;;;;15.23;5.25;;;;;;;;;;4988431;28;20387;-78
2023/05/25 09:35:39;;;;;;;21.92;5.78;;;;;;;;;;4990779;28;20042;-79
2023/05/25 09:38:06;;;;;;;16.55;5.13;;;;;;;;;;4986414;28;20536;-78
2023/05/25 09:40:35;;;;;;;18.02;5.32;;;;;;;;;;4989444;28;20517;-78
2023/05/25 09:43:02;;;;;;;25.60;5.47;;;;;;;;;;4982554;28;20134;-78
2023/05/25 09:45:28;;;;;;;21.73;5.90;;;;;;;;;;4987057;28;20978;-79
2023/05/25 09:47:58;;;;;;;18.45;5.15;;;;;;;;;;4984761;28;20050;-78
2023/05/25 09:50:27;;;;;;;18.00;5.18;;;;;;;;;;4981613;28;20042;-77
2023/05/25 09:53:00;;;;;;;21.88;5.88;;;;;;;;;;4988373;28;20124;-78
2023/05/25 09:55:29;;;;;;;19.05;5.30;;;;;;;;;;4985121;28;20702;-78
2023/05/25 09:57:56;;;;;;;18.42;5.35;;;;;;;;;;4982880;28;20089;-78
2023/05/25 10:00:26;;;;;;;16.08;4.50;;;;;;;;;;4987622;28;20045;-78
2023/05/25 10:02:52;;;;;;;16.75;4.97;;;;;;;;;;4986347;28;20042;-78
2023/05/25 10:05:19;;;;;;;15.52;5.00;;;;;;;;;;4986260;28;20043;-78
2023/05/25 10:07:45;;;;;;;15.43;4.60;;;;;;;;;;4983757;28;20600;-78
2023/05/25 10:10:15;;;;;;;22.40;5.30;;;;;;;;;;4985316;28;20046;-78
2023/05/25 10:12:42;;;;;;;16.80;4.85;;;;;;;;;;4982273;28;20054;-78
2023/05/25 10:15:09;;;;;;;21.67;5.88;;;;;;;;;;4981920;28;20046;-78
2023/05/25 10:17:35;;;;;;;19.23;5.30;;;;;;;;;;4984744;28;20042;-77
2023/05/25 10:20:06;;;;;;;18.77;5.10;;;;;;;;;;4987443;28;20046;-78
2023/05/25 10:22:35;;;;;;;19.95;5.30;;;;;;;;;;4986767;28;20105;-77
2023/05/25 10:25:07;;;;;;;22.20;5.30;;;;;;;;;;4982601;28;20122;-77
2023/05/25 10:27:39;;;;;;;13.57;4.57;;;;;;;;;;4985198;28;20046;-78
2023/05/25 10:30:06;;;;;;;15.77;5.50;;;;;;;;;;4982330;28;20086;-78
2023/05/25 10:32:32;;;;;;;18.60;5.53;;;;;;;;;;4985483;28;20405;-79
2023/05/25 10:34:58;;;;;;;19.20;5.00;;;;;;;;;;4980100;28;20063;-78
2023/05/25 10:37:27;;;;;;;18.65;4.70;;;;;;;;;;4981919;28;20043;-78
2023/05/25 10:39:53;;;;;;;19.08;6.35;;;;;;;;;;4988978;28;20034;-78
2023/05/25 10:42:20;;;;;;;14.70;5.38;;;;;;;;;;4999245;28;20494;-78
2023/05/25 10:44:46;;;;;;;18.50;5.72;;;;;;;;;;4987454;28;20525;-78
2023/05/25 10:47:12;;;;;;;20.25;5.55;;;;;;;;;;4986954;28;20047;-78
2023/05/25 10:50:01;;;;;;;17.33;5.53;;;;;;;;;;4985523;28;20046;-77
2023/05/25 10:52:28;;;;;;;17.70;5.43;;;;;;;;;;4985219;28;20051;-77
2023/05/25 10:55:02;;;;;;;15.07;4.78;;;;;;;;;;4987468;28;20060;-78
2023/05/25 10:57:28;;;;;;;18.13;5.10;;;;;;;;;;5004154;28;20049;-78
2023/05/25 11:00:01;;;;;;;19.38;5.82;;;;;;;;;;4985653;28;20046;-78
2023/05/25 11:02:31;;;;;;;17.27;5.40;;;;;;;;;;4987104;28;20050;-78
2023/05/25 11:05:15;;;;;;;15.45;4.70;;;;;;;;;;4981777;28;20051;-77
2023/05/25 11:07:58;;;;;;;16.33;5.05;;;;;;;;;;4988108;28;20057;-76
2023/05/25 11:10:43;;;;;;;18.47;5.53;;;;;;;;;;4984661;28;20047;-77
2023/05/25 11:13:28;;;;;;;17.27;4.97;;;;;;;;;;4987668;28;20035;-77
2023/05/25 11:16:12;;;;;;;12.02;5.13;;;;;;;;;;4980169;28;20046;-77
2023/05/25 11:18:40;;;;;;;19.90;6.40;;;;;;;;;;4989194;28;20085;-77
2023/05/25 11:21:13;;;;;;;21.33;5.55;;;;;;;;;;4989844;28;20054;-77
2023/05/25 11:23:52;;;;;;;17.20;5.18;;;;;;;;;;4989754;28;20042;-77
2023/05/25 11:26:21;;;;;;;23.58;5.80;;;;;;;;;;4989374;28;20398;-76
2023/05/25 11:28:48;;;;;;;20.40;5.90;;;;;;;;;;4989860;28;20089;-76
2023/05/25 11:31:15;;;;;;;21.48;5.60;;;;;;;;;;4988910;28;20158;-76
2023/05/25 11:33:43;;;;;;;14.80;4.88;;;;;;;;;;4986739;28;20045;-77
2023/05/25 11:36:10;;;;;;;19.13;5.30;;;;;;;;;;4992655;28;20620;-78
2023/05/25 11:38:44;;;;;;;19.85;5.82;;;;;;;;;;4988537;28;20042;-78
2023/05/25 11:41:22;;;;;;;16.60;5.53;;;;;;;;;;4992262;28;20128;-78
2023/05/25 11:43:49;;;;;;;20.38;5.75;;;;;;;;;;4988605;28;20121;-77
2023/05/25 11:46:18;;;;;;;20.35;5.72;;;;;;;;;;4990898;28;20069;-78
2023/05/25 11:48:45;;;;;;;19.92;6.88;;;;;;;;;;4992667;28;20050;-78
2023/05/25 11:51:11;;;;;;;19.70;5.70;;;;;;;;;;4988657;28;20133;-77
2023/05/25 11:53:41;;;;;;;15.60;5.47;;;;;;;;;;4991832;28;20125;-79
2023/05/25 11:56:08;;;;;;;17.85;5.05;;;;;;;;;;4993350;28;20057;-77
2023/05/25 11:58:34;;;;;;;16.55;5.53;;;;;;;;;;4990778;28;20125;-78
2023/05/25 12:01:14;;;;;;;18.13;5.10;;;;;;;;;;4989382;28;20046;-79
2023/05/25 12:03:40;;;;;;;18.63;5.57;;;;;;;;;;4986481;28;20096;-80
2023/05/25 12:06:06;;;;;;;19.48;5.47;;;;;;;;;;4987523;28;20049;-78
2023/05/25 12:08:35;;;;;;;19.40;6.05;;;;;;;;;;4991498;28;20049;-77
2023/05/25 12:11:02;;;;;;;20.77;5.88;;;;;;;;;;4991927;28;20113;-78
2023/05/25 12:13:28;;;;;;;18.90;5.25;;;;;;;;;;4990275;28;20050;-78
2023/05/25 12:15:56;;;;;;;19.38;5.60;;;;;;;;;;4991828;28;20183;-77
2023/05/25 12:18:22;;;;;;;18.40;4.88;;;;;;;;;;4990006;28;20053;-78
2023/05/25 12:20:48;;;;;;;18.50;5.57;;;;;;;;;;4990282;28;20043;-77
2023/05/25 12:23:14;;;;;;;21.27;5.38;;;;;;;;;;4991393;28;20051;-78
2023/05/25 12:25:41;;;;;;;21.55;5.85;;;;;;;;;;4991854;28;20057;-78
2023/05/25 12:28:11;;;;;;;22.20;5.65;;;;;;;;;;4989436;28;20046;-77
2023/05/25 12:30:37;;;;;;;21.77;5.80;;;;;;;;;;4988157;28;20093;-78
2023/05/25 12:33:03;;;;;;;21.48;6.45;;;;;;;;;;4989928;28;20096;-78
2023/05/25 12:35:29;;;;;;;20.92;5.85;;;;;;;;;;4987117;28;20101;-78
2023/05/25 12:38:22;;;;;;;19.50;5.90;;;;;;;;;;4991235;28;20461;-78
2023/05/25 12:41:03;;;;;;;15.57;5.55;;;;;;;;;;4986881;28;20108;-77
2023/05/25 12:43:36;;;;;;;16.30;5.65;;;;;;;;;;4991116;28;20046;-78
2023/05/25 12:46:02;;;;;;;27.45;6.57;;;;;;;;;;4990376;28;20395;-79
2023/05/25 12:48:28;;;;;;;24.52;6.15;;;;;;;;;;5003627;28;20159;-78
2023/05/25 12:50:57;;;;;;;14.57;4.90;;;;;;;;;;4988520;28;20050;-78
2023/05/25 12:53:24;;;;;;;15.98;5.00;;;;;;;;;;4989504;28;20078;-78
2023/05/25 12:55:50;;;;;;;17.58;5.47;;;;;;;;;;4988124;28;20038;-77
2023/05/25 12:58:29;;;;;;;15.32;5.13;;;;;;;;;;4989676;28;20034;-78
2023/05/25 13:00:55;;;;;;;13.10;4.57;;;;;;;;;;4987701;28;20054;-78
2023/05/25 13:03:21;;;;;;;14.93;5.80;;;;;;;;;;4989671;28;20039;-77
2023/05/25 13:05:47;;;;;;;16.75;5.35;;;;;;;;;;4992056;28;20046;-78
2023/05/25 13:08:14;;;;;;;13.48;5.05;;;;;;;;;;4988491;28;20046;-78
2023/05/25 13:10:40;;;;;;;15.85;5.28;;;;;;;;;;4990907;28;20129;-78
2023/05/25 13:13:06;;;;;;;22.58;5.88;;;;;;;;;;4991646;28;20418;-78
2023/05/25 13:15:32;;;;;;;16.65;5.45;;;;;;;;;;4987159;28;20050;-78
2023/05/25 13:17:58;;;;;;;16.98;5.75;;;;;;;;;;4987017;28;20402;-78
2023/05/25 13:20:25;;;;;;;17.15;5.85;;;;;;;;;;4989392;28;20181;-78
2023/05/25 13:22:52;;;;;;;13.68;5.10;;;;;;;;;;4987582;28;20051;-78
2023/05/25 13:25:20;;;;;;;21.02;5.28;;;;;;;;;;4989111;28;20478;-78
2023/05/25 13:27:47;;;;;;;17.23;5.30;;;;;;;;;;4989049;28;20498;-78
2023/05/25 13:30:14;;;;;;;18.90;5.53;;;;;;;;;;4987052;28;20057;-78
2023/05/25 13:32:42;;;;;;;17.58;5.35;;;;;;;;;;4988440;28;20042;-77
2023/05/25 13:35:11;;;;;;;14.23;4.63;;;;;;;;;;4987245;28;20069;-77
2023/05/25 13:37:37;;;;;;;14.00;5.22;;;;;;;;;;4988619;28;20058;-78
2023/05/25 13:40:04;;;;;;;18.45;5.47;;;;;;;;;;4989262;28;20097;-78
2023/05/25 13:42:31;;;;;;;14.57;4.60;;;;;;;;;;4989183;28;21577;-78
2023/05/25 13:44:57;;;;;;;11.55;4.68;;;;;;;;;;4986690;28;20113;-78
2023/05/25 13:47:23;;;;;;;13.35;4.75;;;;;;;;;;4989595;28;20166;-78
2023/05/25 13:49:49;;;;;;;16.05;4.30;;;;;;;;;;4987918;28;20046;-78
2023/05/25 13:52:15;;;;;;;14.20;5.00;;;;;;;;;;4982465;28;20141;-78
2023/05/25 13:54:41;;;;;;;14.23;4.82;;;;;;;;;;4991122;28;20050;-78
2023/05/25 13:57:07;;;;;;;15.48;5.30;;;;;;;;;;4985353;28;20046;-77
2023/05/25 13:59:33;;;;;;;18.67;5.05;;;;;;;;;;4988502;28;20049;-78
2023/05/25 14:01:59;;;;;;;16.77;5.25;;;;;;;;;;4987367;28;20595;-78
2023/05/25 14:04:25;;;;;;;15.98;5.03;;;;;;;;;;4982241;28;20437;-77
2023/05/25 14:06:51;;;;;;;16.85;5.20;;;;;;;;;;4991454;28;20039;-77
2023/05/25 14:09:17;;;;;;;18.45;5.18;;;;;;;;;;4989167;28;20046;-77
2023/05/25 14:11:43;;;;;;;15.73;4.85;;;;;;;;;;4986643;28;20050;-77
2023/05/25 14:14:09;;;;;;;17.23;5.40;;;;;;;;;;4988773;28;20121;-77
2023/05/25 14:16:36;;;;;;;16.77;5.72;;;;;;;;;;4986123;28;20569;-77
2023/05/25 14:19:02;;;;;;;29.67;6.30;;;;;;;;;;4988795;28;20057;-77
2023/05/25 14:21:29;;;;;;;18.20;5.75;;;;;;;;;;4983375;28;20058;-76
2023/05/25 14:23:55;;;;;;;14.93;5.28;;;;;;;;;;4986107;28;20034;-77
2023/05/25 14:26:21;;;;;;;13.77;4.75;;;;;;;;;;4980817;28;20158;-77
2023/05/25 14:28:47;;;;;;;17.63;4.70;;;;;;;;;;4989884;28;20031;-77
2023/05/25 14:31:13;;;;;;;12.00;4.82;;;;;;;;;;4996005;28;20046;-77